Time;durP1;ratioP1;P1;durP2;ratioP2;P2;SDS_P1;SDS_P2;PMS_P1;PMS_P2;Temp;Humidity;BMP_temperature;BMP_pressure;BME280_temperature;BME280_humidity;BME280_pressure;Samples;Min_cycle;Max_cycle;Signal;HPM_P1;HPM_P2
2023/01/28 00:01:30;;;;;;;14.40;11.80;;;;;;;0.85;96.40;96954.97;5114108;28;20239;-61
2023/01/28 00:03:56;;;;;;;14.83;11.53;;;;;;;0.90;97.09;96950.38;5114825;28;20223;-60
2023/01/28 00:06:23;;;;;;;14.53;11.53;;;;;;;0.84;96.01;96950.69;5114150;28;20216;-61
2023/01/28 00:08:50;;;;;;;14.10;11.80;;;;;;;0.90;96.69;96946.94;5116451;28;20239;-61
2023/01/28 00:11:17;;;;;;;13.43;11.07;;;;;;;0.93;96.79;96950.22;5116348;28;20223;-62
2023/01/28 00:13:44;;;;;;;15.53;11.47;;;;;;;0.97;96.87;96946.53;5115506;28;20530;-60
2023/01/28 00:16:11;;;;;;;14.83;12.00;;;;;;;0.92;95.55;96953.72;5114150;28;20200;-62
2023/01/28 00:18:37;;;;;;;15.40;12.27;;;;;;;0.89;97.06;96951.28;5115031;28;20213;-60
2023/01/28 00:21:05;;;;;;;16.73;12.43;;;;;;;0.84;95.50;96947.25;5114254;28;20212;-62
2023/01/28 00:23:34;;;;;;;16.63;12.03;;;;;;;0.73;97.41;96944.31;5114746;28;20205;-62
2023/01/28 00:26:02;;;;;;;15.27;12.27;;;;;;;0.79;97.39;96944.84;5115382;28;20644;-60
2023/01/28 00:28:29;;;;;;;15.37;12.10;;;;;;;0.82;97.28;96942.09;5115867;28;20223;-61
2023/01/28 00:30:55;;;;;;;14.97;12.00;;;;;;;0.86;97.74;96941.03;5115000;28;20219;-62
2023/01/28 00:33:22;;;;;;;16.63;12.53;;;;;;;0.80;97.94;96945.72;5116825;28;20211;-61
2023/01/28 00:35:57;;;;;;;21.30;12.90;;;;;;;0.73;97.34;96934.75;5114341;28;20200;-63
2023/01/28 00:38:24;;;;;;;17.13;13.17;;;;;;;0.73;97.73;96939.13;5113761;28;20207;-62
2023/01/28 00:40:50;;;;;;;17.60;12.73;;;;;;;0.79;98.42;96931.84;5114871;28;20217;-61
2023/01/28 00:43:18;;;;;;;16.57;12.77;;;;;;;0.76;98.39;96932.00;5114713;28;20645;-62
2023/01/28 00:45:44;;;;;;;16.47;12.77;;;;;;;0.75;98.96;96938.13;5114231;28;20200;-60
2023/01/28 00:48:14;;;;;;;17.47;12.70;;;;;;;0.82;99.13;96934.28;5113583;28;20224;-61
2023/01/28 00:50:40;;;;;;;16.43;12.53;;;;;;;0.87;99.42;96929.72;5113199;28;20212;-61
2023/01/28 00:53:06;;;;;;;18.83;13.37;;;;;;;0.90;99.24;96923.50;5113802;28;20229;-60
2023/01/28 00:55:33;;;;;;;16.67;13.13;;;;;;;0.83;99.21;96928.19;5112941;28;20222;-61
2023/01/28 00:57:59;;;;;;;17.70;13.50;;;;;;;0.84;99.47;96932.47;5113476;28;20203;-61
2023/01/28 01:00:27;;;;;;;17.23;12.17;;;;;;;0.96;99.19;96933.59;5113385;28;20502;-62
2023/01/28 01:02:54;;;;;;;17.33;13.23;;;;;;;0.92;100.00;96935.50;5112939;28;20244;-61
2023/01/28 01:05:20;;;;;;;18.00;13.20;;;;;;;0.86;99.19;96925.41;5113444;28;20209;-61
2023/01/28 01:07:47;;;;;;;17.00;13.10;;;;;;;0.88;98.50;96941.81;5094196;28;20228;-60
2023/01/28 01:10:15;;;;;;;16.97;12.53;;;;;;;0.85;99.19;96936.72;5112747;28;20204;-62
2023/01/28 01:12:42;;;;;;;17.57;13.00;;;;;;;0.91;99.82;96933.84;5113387;28;20200;-60
2023/01/28 01:15:10;;;;;;;16.63;12.30;;;;;;;0.92;98.93;96935.50;5112285;28;20208;-60
2023/01/28 01:17:38;;;;;;;18.03;12.70;;;;;;;0.96;100.00;96929.22;5112312;28;20213;-60
2023/01/28 01:20:06;;;;;;;16.83;12.77;;;;;;;0.92;99.37;96930.31;5112893;28;20204;-62
2023/01/28 01:22:33;;;;;;;18.87;12.83;;;;;;;0.85;99.12;96941.13;5112777;28;20220;-61
2023/01/28 01:25:00;;;;;;;16.33;11.90;;;;;;;0.87;98.59;96939.28;5112621;28;20216;-61
2023/01/28 01:27:26;;;;;;;18.87;13.27;;;;;;;0.80;98.21;96936.16;5112926;28;20268;-62
2023/01/28 01:29:53;;;;;;;18.57;13.33;;;;;;;0.77;98.94;96943.25;5123653;28;20177;-62
2023/01/28 01:32:21;;;;;;;18.83;13.10;;;;;;;0.71;99.13;96941.78;5137051;28;20197;-63
2023/01/28 01:34:48;;;;;;;20.37;14.17;;;;;;;0.67;99.35;96955.91;5138801;28;20195;-63
2023/01/28 01:37:15;;;;;;;19.90;13.17;;;;;;;0.70;99.27;96947.09;5137339;28;20184;-61
2023/01/28 01:39:41;;;;;;;16.60;12.70;;;;;;;0.71;100.00;96944.38;5127403;28;20195;-62
2023/01/28 01:42:10;;;;;;;19.20;13.23;;;;;;;0.64;99.50;96940.41;5114061;28;20208;-62
2023/01/28 01:44:58;;;;;;;18.83;13.97;;;;;;;0.63;100.00;96941.34;5114136;28;20632;-62
2023/01/28 01:47:27;;;;;;;19.40;13.83;;;;;;;0.57;99.57;96946.00;5113884;28;20209;-62
2023/01/28 01:49:55;;;;;;;17.17;12.53;;;;;;;0.69;100.00;96948.84;5112796;28;20195;-62
2023/01/28 01:52:25;;;;;;;18.27;13.80;;;;;;;0.74;100.00;96939.06;5114361;28;20537;-61
2023/01/28 01:54:53;;;;;;;17.97;13.57;;;;;;;0.77;100.00;96949.31;5112414;28;20579;-61
2023/01/28 01:57:24;;;;;;;22.80;15.77;;;;;;;0.74;100.00;96944.25;5112989;28;20204;-60
2023/01/28 01:59:51;;;;;;;19.67;13.97;;;;;;;0.80;99.91;96946.56;5110015;28;20216;-61
2023/01/28 02:02:17;;;;;;;20.93;14.00;;;;;;;0.71;99.90;96944.38;5112165;28;20243;-60
2023/01/28 02:04:44;;;;;;;20.87;15.00;;;;;;;0.74;99.66;96948.63;5111621;28;20542;-60
2023/01/28 02:07:13;;;;;;;20.47;12.97;;;;;;;0.77;99.97;96943.25;5112435;28;20220;-60
2023/01/28 02:09:40;;;;;;;20.03;13.47;;;;;;;0.75;99.44;96945.94;5112013;28;20204;-61
2023/01/28 02:12:09;;;;;;;18.97;13.83;;;;;;;0.70;99.50;96942.72;5112206;28;20204;-61
2023/01/28 02:14:38;;;;;;;18.17;13.60;;;;;;;0.75;99.34;96951.13;5111780;28;20225;-61
2023/01/28 02:17:05;;;;;;;20.77;14.83;;;;;;;0.76;99.25;96947.63;5111821;28;20199;-61
2023/01/28 02:19:37;;;;;;;19.47;14.23;;;;;;;0.82;99.84;96942.09;5112148;28;20192;-62
2023/01/28 02:22:22;;;;;;;18.20;13.73;;;;;;;0.76;98.94;96947.63;5112013;28;20268;-61
2023/01/28 02:25:09;;;;;;;18.90;14.60;;;;;;;0.76;99.06;96942.41;5111053;28;20204;-62
2023/01/28 02:27:38;;;;;;;18.83;13.77;;;;;;;0.77;99.71;96946.72;5112281;28;20220;-62
2023/01/28 02:30:11;;;;;;;18.70;13.67;;;;;;;0.82;100.00;96947.31;5111491;28;20216;-61
2023/01/28 02:32:42;;;;;;;19.53;14.47;;;;;;;0.81;99.51;96961.25;5110836;28;20215;-60
2023/01/28 02:35:13;;;;;;;18.90;13.73;;;;;;;0.84;99.60;96955.91;5111513;28;20207;-62
2023/01/28 02:37:46;;;;;;;19.27;14.40;;;;;;;0.75;99.05;96955.50;5111521;28;20196;-62
2023/01/28 02:40:14;;;;;;;20.30;14.63;;;;;;;0.69;99.04;96954.03;5111533;28;20208;-62
2023/01/28 02:42:41;;;;;;;17.60;13.63;;;;;;;0.68;99.44;96954.09;5111819;28;20204;-61
2023/01/28 02:45:17;;;;;;;18.23;13.83;;;;;;;0.72;99.49;96956.50;5111293;28;20204;-61
2023/01/28 02:47:58;;;;;;;22.40;14.97;;;;;;;0.62;100.00;96954.41;5111526;28;20204;-61
2023/01/28 02:50:30;;;;;;;18.43;13.77;;;;;;;0.68;100.00;96954.97;5113464;28;20200;-62
2023/01/28 02:55:52;;;;;;;18.43;14.03;;;;;;;0.73;100.00;96955.59;5114111;28;20281;-62
2023/01/28 02:58:26;;;;;;;18.40;14.70;;;;;;;0.77;100.00;96954.53;5113729;28;20629;-61
2023/01/28 03:00:57;;;;;;;20.43;15.27;;;;;;;0.70;100.00;96960.94;5111499;28;20248;-62
2023/01/28 03:03:27;;;;;;;20.63;15.50;;;;;;;0.68;100.00;96959.31;5111497;28;20220;-61
2023/01/28 03:06:06;;;;;;;19.80;14.87;;;;;;;0.59;100.00;96963.22;5109837;28;20200;-62
2023/01/28 03:38:55;;;;;;;18.30;14.60;;;;;;;0.64;100.00;96958.63;5110011;28;20221;-61
2023/01/28 03:41:23;;;;;;;21.43;16.67;;;;;;;0.65;100.00;96957.72;5109961;28;20228;-61
2023/01/28 03:43:50;;;;;;;19.63;15.77;;;;;;;0.59;100.00;96955.41;5110840;28;20200;-61
2023/01/28 03:46:17;;;;;;;18.53;14.83;;;;;;;0.55;100.00;96958.25;5111376;28;20200;-60
2023/01/28 03:48:45;;;;;;;18.90;13.93;;;;;;;0.52;100.00;96963.59;5110894;28;20290;-61
2023/01/28 03:51:12;;;;;;;19.00;15.33;;;;;;;0.44;100.00;96967.41;5109562;28;20200;-61
2023/01/28 03:53:39;;;;;;;18.67;15.07;;;;;;;0.57;100.00;96962.44;5111198;28;20200;-61
2023/01/28 03:56:06;;;;;;;19.50;15.70;;;;;;;0.52;100.00;96966.19;5111344;28;20291;-60
2023/01/28 03:58:51;;;;;;;18.50;15.03;;;;;;;0.55;100.00;96953.88;5116704;28;20201;-62
2023/01/28 04:01:18;;;;;;;19.47;15.70;;;;;;;0.59;100.00;96960.63;5133538;28;20232;-61
2023/01/28 04:03:45;;;;;;;19.27;15.77;;;;;;;0.48;100.00;96968.09;5135550;28;20177;-61
2023/01/28 04:06:12;;;;;;;20.13;16.13;;;;;;;0.53;100.00;96966.13;5133668;28;20203;-61
2023/01/28 04:08:38;;;;;;;19.43;15.33;;;;;;;0.53;100.00;96970.50;5136439;28;20219;-63
2023/01/28 04:11:15;;;;;;;19.37;15.67;;;;;;;0.48;100.00;96968.09;5127816;28;20204;-60
2023/01/28 04:13:42;;;;;;;19.27;16.03;;;;;;;0.47;100.00;96974.22;5113465;28;20202;-61
2023/01/28 04:16:08;;;;;;;18.53;15.20;;;;;;;0.50;100.00;96976.66;5114315;28;20286;-61
2023/01/28 04:18:35;;;;;;;20.77;16.10;;;;;;;0.44;100.00;96966.56;5096753;28;21291;-62
2023/01/28 04:21:03;;;;;;;20.70;15.43;;;;;;;0.48;100.00;96975.91;5114322;28;20208;-62
2023/01/28 04:23:29;;;;;;;19.43;15.70;;;;;;;0.52;100.00;96971.41;5115048;27;20527;-62
2023/01/28 04:25:56;;;;;;;18.97;15.80;;;;;;;0.53;100.00;96976.53;5113474;28;20218;-62
2023/01/28 04:28:22;;;;;;;18.30;15.57;;;;;;;0.46;100.00;96980.34;5114345;28;20215;-61
2023/01/28 04:30:49;;;;;;;18.43;14.90;;;;;;;0.43;100.00;96978.72;5114024;28;20208;-61
2023/01/28 04:33:15;;;;;;;18.93;14.93;;;;;;;0.44;100.00;96972.63;5114126;28;20204;-61
2023/01/28 04:35:42;;;;;;;18.33;15.23;;;;;;;0.49;100.00;96975.84;5113982;28;20221;-61
2023/01/28 04:38:10;;;;;;;19.40;14.67;;;;;;;0.47;100.00;96987.22;5114564;28;20214;-61
2023/01/28 04:40:36;;;;;;;17.67;14.70;;;;;;;0.58;100.00;96982.34;5113765;28;20213;-61
2023/01/28 04:43:02;;;;;;;18.70;15.13;;;;;;;0.50;100.00;96980.13;5114102;28;20207;-60
2023/01/28 04:45:29;;;;;;;16.80;14.40;;;;;;;0.40;100.00;96981.47;5113799;28;20208;-61
2023/01/28 04:47:56;;;;;;;18.50;15.33;;;;;;;0.42;100.00;96984.03;5113533;28;20664;-60
2023/01/28 04:50:22;;;;;;;20.37;15.80;;;;;;;0.40;100.00;96991.03;5114963;28;20212;-61
2023/01/28 04:52:49;;;;;;;16.47;14.47;;;;;;;0.34;100.00;96992.19;5117130;28;20212;-62
2023/01/28 04:55:17;;;;;;;17.07;14.67;;;;;;;0.33;100.00;96989.63;5116197;28;20227;-61
2023/01/28 04:57:44;;;;;;;19.30;15.00;;;;;;;0.34;100.00;96992.19;5116403;28;20203;-61
2023/01/28 05:00:11;;;;;;;19.37;14.90;;;;;;;0.37;100.00;96988.59;5117034;28;20648;-62
2023/01/28 05:02:37;;;;;;;18.90;14.53;;;;;;;0.34;100.00;96991.34;5115060;28;20239;-62
2023/01/28 05:05:07;;;;;;;17.33;14.63;;;;;;;0.34;100.00;96991.34;5116427;28;20201;-60
2023/01/28 05:07:34;;;;;;;17.57;14.83;;;;;;;0.37;100.00;96991.19;5115335;28;20205;-61
2023/01/28 05:10:00;;;;;;;18.93;14.40;;;;;;;0.41;100.00;96987.53;5114768;28;20199;-61
2023/01/28 05:12:31;;;;;;;19.90;14.20;;;;;;;0.38;100.00;96990.28;5112810;28;20538;-62
2023/01/28 05:14:59;;;;;;;19.37;15.67;;;;;;;0.34;100.00;96991.34;5112784;28;20211;-62
2023/01/28 05:17:25;;;;;;;17.07;14.37;;;;;;;0.40;100.00;96991.03;5112899;28;20225;-62
2023/01/28 05:19:52;;;;;;;20.13;13.70;;;;;;;0.38;100.00;96998.94;5111533;28;20628;-60
2023/01/28 05:22:18;;;;;;;18.77;14.90;;;;;;;0.34;100.00;97001.75;5112357;28;20540;-61
2023/01/28 05:24:45;;;;;;;16.30;13.20;;;;;;;0.36;100.00;97007.69;5112687;28;20208;-63
2023/01/28 05:27:12;;;;;;;18.50;14.03;;;;;;;0.43;100.00;97001.28;5112852;28;20207;-61
2023/01/28 05:29:41;;;;;;;17.73;13.20;;;;;;;0.40;100.00;97007.50;5110633;28;20689;-61
2023/01/28 05:32:07;;;;;;;16.37;13.13;;;;;;;0.40;100.00;97011.84;5111869;28;20628;-61
2023/01/28 05:34:34;;;;;;;15.70;13.60;;;;;;;0.39;100.00;97015.38;5112619;28;20207;-61
2023/01/28 05:37:00;;;;;;;18.90;14.13;;;;;;;0.46;100.00;97027.19;5111787;28;20211;-61
2023/01/28 05:39:27;;;;;;;18.53;13.83;;;;;;;0.49;100.00;97022.69;5112143;28;20192;-63
2023/01/28 05:41:53;;;;;;;17.03;14.43;;;;;;;0.46;100.00;97021.97;5111957;28;20211;-61
2023/01/28 05:44:19;;;;;;;16.67;13.43;;;;;;;0.46;100.00;97021.97;5111449;28;20196;-63
2023/01/28 05:46:47;;;;;;;17.00;13.83;;;;;;;0.42;100.00;97025.63;5112031;28;20223;-63
2023/01/28 05:49:14;;;;;;;15.93;13.50;;;;;;;0.48;100.00;97030.53;5110763;28;20240;-61
2023/01/28 05:51:41;;;;;;;17.77;13.80;;;;;;;0.50;100.00;97023.50;5111670;28;20220;-60
2023/01/28 05:54:08;;;;;;;16.53;13.53;;;;;;;0.51;100.00;97022.59;5117818;28;20205;-62
2023/01/28 05:56:35;;;;;;;17.50;13.60;;;;;;;0.48;100.00;97034.00;5117231;28;20229;-61
2023/01/28 05:59:02;;;;;;;14.47;12.90;;;;;;;0.48;100.00;97030.53;5115927;28;20200;-62
2023/01/28 06:01:28;;;;;;;16.23;13.50;;;;;;;0.48;100.00;97035.75;5114689;28;20236;-62
2023/01/28 06:03:56;;;;;;;14.47;12.47;;;;;;;0.50;100.00;97039.09;5111560;28;20626;-61
2023/01/28 06:06:23;;;;;;;16.67;13.40;;;;;;;0.47;100.00;97031.44;5111314;28;20691;-62
2023/01/28 06:08:49;;;;;;;14.27;12.67;;;;;;;0.38;100.00;97035.34;5111436;28;20554;-60
2023/01/28 06:11:16;;;;;;;14.67;12.73;;;;;;;0.50;100.00;97036.50;5111658;28;20204;-60
2023/01/28 06:13:42;;;;;;;16.57;13.20;;;;;;;0.53;100.00;97039.00;5112056;28;20210;-63
2023/01/28 06:16:09;;;;;;;16.37;13.23;;;;;;;0.53;100.00;97039.00;5112261;28;20212;-61
2023/01/28 06:18:35;;;;;;;15.53;12.57;;;;;;;0.45;100.00;97041.09;5111904;28;20214;-61
2023/01/28 06:21:04;;;;;;;14.50;12.17;;;;;;;0.40;100.00;97043.91;5111481;28;20302;-62
2023/01/28 06:23:30;;;;;;;14.50;12.17;;;;;;;0.38;100.00;97052.72;5123620;28;20203;-62
2023/01/28 06:25:57;;;;;;;13.83;11.83;;;;;;;0.37;100.00;97054.47;5126352;28;20194;-62
2023/01/28 06:28:24;;;;;;;12.80;11.23;;;;;;;0.38;100.00;97050.94;5109417;28;20228;-62
2023/01/28 06:30:52;;;;;;;13.40;11.73;;;;;;;0.38;100.00;97045.75;5111327;28;20222;-62
2023/01/28 06:33:18;;;;;;;13.43;11.47;;;;;;;0.37;100.00;97046.66;5111302;28;20640;-62
2023/01/28 06:35:45;;;;;;;13.03;11.30;;;;;;;0.45;100.00;97038.50;5113732;28;20213;-61
2023/01/28 06:38:13;;;;;;;13.67;12.27;;;;;;;0.48;100.00;97048.75;5135841;28;20210;-63
2023/01/28 06:40:41;;;;;;;14.03;12.20;;;;;;;0.47;100.00;97049.66;5135831;28;20258;-63
2023/01/28 06:43:07;;;;;;;14.83;12.00;;;;;;;0.48;100.00;97056.56;5133738;28;20200;-64
2023/01/28 06:45:35;;;;;;;15.10;12.63;;;;;;;0.46;100.00;97054.03;5130458;28;20330;-62
2023/01/28 06:48:02;;;;;;;14.40;12.70;;;;;;;0.48;100.00;97062.63;5113838;28;20207;-62
2023/01/28 06:50:28;;;;;;;13.40;11.90;;;;;;;0.45;100.00;97062.75;5113527;28;20223;-62
2023/01/28 06:52:55;;;;;;;14.23;12.47;;;;;;;0.44;100.00;97062.81;5110432;28;20216;-61
2023/01/28 06:55:22;;;;;;;14.40;11.77;;;;;;;0.53;100.00;97066.75;5110762;28;20198;-61
2023/01/28 06:57:49;;;;;;;15.30;12.57;;;;;;;0.47;100.00;97060.06;5111805;28;20229;-61
2023/01/28 07:00:16;;;;;;;13.90;11.77;;;;;;;0.47;100.00;97060.06;5111646;28;20192;-61
2023/01/28 07:02:42;;;;;;;13.50;11.53;;;;;;;0.51;100.00;97066.81;5110711;28;20326;-62
2023/01/28 07:05:10;;;;;;;14.53;12.33;;;;;;;0.47;100.00;97065.28;5111555;28;20207;-63
2023/01/28 07:07:37;;;;;;;13.67;12.13;;;;;;;0.51;100.00;97072.03;5111353;28;20218;-63
2023/01/28 07:10:04;;;;;;;12.73;11.07;;;;;;;0.51;100.00;97074.63;5110847;28;20702;-62
2023/01/28 07:12:32;;;;;;;14.20;11.87;;;;;;;0.52;100.00;97070.28;5111479;28;21414;-61
2023/01/28 07:14:59;;;;;;;15.07;12.90;;;;;;;0.49;100.00;97073.88;5112619;28;20208;-61
2023/01/28 07:17:25;;;;;;;14.70;12.47;;;;;;;0.47;100.00;97075.69;5111066;28;20206;-61
2023/01/28 07:19:52;;;;;;;14.03;12.50;;;;;;;0.55;99.54;97068.38;5111242;28;20654;-61
2023/01/28 07:22:18;;;;;;;14.63;12.13;;;;;;;0.51;99.80;97077.22;5110910;28;20204;-60
2023/01/28 07:24:45;;;;;;;14.90;11.90;;;;;;;0.56;99.16;97074.41;5111294;28;20223;-62
2023/01/28 07:27:11;;;;;;;16.40;13.60;;;;;;;0.53;99.49;97091.03;5111760;28;20193;-63
2023/01/28 07:29:39;;;;;;;15.70;12.57;;;;;;;0.52;99.69;97081.53;5112059;28;20221;-61
2023/01/28 07:32:06;;;;;;;14.50;12.53;;;;;;;0.59;99.55;97089.88;5111642;28;20210;-60
2023/01/28 07:34:32;;;;;;;15.20;12.83;;;;;;;0.59;99.01;97095.09;5113473;28;20280;-62
2023/01/28 07:36:59;;;;;;;15.63;12.73;;;;;;;0.66;98.99;97099.94;5111752;28;20223;-60
2023/01/28 07:39:25;;;;;;;15.70;12.50;;;;;;;0.59;98.42;97098.53;5111438;28;20214;-62
2023/01/28 07:41:52;;;;;;;14.50;11.90;;;;;;;0.55;98.77;97098.75;5111794;28;20301;-63
2023/01/28 07:44:18;;;;;;;14.37;12.00;;;;;;;0.54;98.65;97087.50;5112627;28;20205;-61
2023/01/28 07:46:46;;;;;;;15.40;12.23;;;;;;;0.68;99.11;97094.66;5111753;28;20338;-61
2023/01/28 07:49:13;;;;;;;14.97;12.37;;;;;;;0.68;98.38;97099.84;5113852;28;20231;-61
2023/01/28 07:51:39;;;;;;;14.10;12.13;;;;;;;0.66;98.65;97096.50;5115227;28;20204;-61
2023/01/28 07:54:06;;;;;;;16.40;12.53;;;;;;;0.67;97.32;97106.84;5114637;28;20201;-62
2023/01/28 07:56:32;;;;;;;18.00;12.60;;;;;;;0.68;97.59;97099.84;5114239;28;20641;-62
2023/01/28 07:58:59;;;;;;;15.70;12.10;;;;;;;0.70;98.18;97111.91;5114830;28;20192;-60
2023/01/28 08:01:26;;;;;;;17.23;12.07;;;;;;;0.68;98.18;97108.50;5114280;28;20235;-61
2023/01/28 08:03:53;;;;;;;15.40;12.90;;;;;;;0.73;97.80;97111.75;5114193;28;20655;-62
2023/01/28 08:06:20;;;;;;;14.60;12.27;;;;;;;0.78;97.67;97106.34;5114631;28;21117;-61
2023/01/28 08:08:47;;;;;;;16.73;12.67;;;;;;;0.76;97.79;97119.41;5114855;28;20203;-62
2023/01/28 08:11:14;;;;;;;13.93;11.23;;;;;;;0.76;97.59;97114.22;5113236;28;20684;-63
2023/01/28 08:13:40;;;;;;;13.97;11.50;;;;;;;0.66;96.97;97115.56;5114081;28;20223;-61
2023/01/28 08:16:07;;;;;;;14.87;11.47;;;;;;;0.73;97.36;97119.56;5114534;28;20213;-61
2023/01/28 08:18:34;;;;;;;13.43;10.87;;;;;;;0.68;97.39;97121.53;5114706;28;20208;-61
2023/01/28 08:21:01;;;;;;;14.27;11.37;;;;;;;0.74;97.13;97131.66;5118365;28;20218;-63
2023/01/28 08:23:29;;;;;;;13.53;11.37;;;;;;;0.74;97.27;97130.81;5122800;28;20246;-62
2023/01/28 08:25:58;;;;;;;13.37;10.70;;;;;;;0.74;96.44;97136.88;5103354;28;20264;-61
2023/01/28 08:28:25;;;;;;;15.10;11.87;;;;;;;0.71;96.95;97136.19;5122234;28;20200;-63
2023/01/28 08:30:51;;;;;;;13.00;11.07;;;;;;;0.76;96.18;97145.44;5116173;28;20232;-63
2023/01/28 08:33:18;;;;;;;14.20;11.80;;;;;;;0.74;96.00;97144.69;5114390;28;20222;-62
2023/01/28 08:35:45;;;;;;;14.07;11.13;;;;;;;0.72;96.61;97140.44;5114209;28;20553;-63
2023/01/28 08:38:14;;;;;;;12.60;10.60;;;;;;;0.70;95.63;97150.94;5113490;28;20200;-61
2023/01/28 08:40:40;;;;;;;13.70;10.87;;;;;;;0.70;95.79;97153.56;5113220;28;20623;-62
2023/01/28 08:43:08;;;;;;;13.13;10.73;;;;;;;0.70;95.78;97156.16;5112670;28;20211;-61
2023/01/28 08:45:34;;;;;;;13.17;11.03;;;;;;;0.69;95.73;97158.81;5113128;27;20620;-62
2023/01/28 08:48:02;;;;;;;14.90;10.60;;;;;;;0.66;95.77;97157.19;5113570;28;20205;-61
2023/01/28 08:50:31;;;;;;;14.70;10.63;;;;;;;0.70;95.40;97156.16;5113996;28;20220;-61
2023/01/28 08:53:00;;;;;;;14.07;11.00;;;;;;;0.70;95.48;97158.75;5112356;28;20233;-60
2023/01/28 08:55:28;;;;;;;12.57;10.03;;;;;;;0.77;94.45;97159.31;5112362;28;20211;-62
2023/01/28 08:57:55;;;;;;;13.17;10.90;;;;;;;0.75;94.48;97168.94;5113494;28;20290;-63
2023/01/28 09:00:22;;;;;;;14.07;11.40;;;;;;;0.72;95.19;97162.13;5112977;28;20206;-61
2023/01/28 09:02:51;;;;;;;14.97;11.23;;;;;;;0.81;95.01;97164.31;5112997;28;20238;-61
2023/01/28 09:05:17;;;;;;;13.73;11.27;;;;;;;0.93;94.39;97171.53;5113818;28;20211;-61
2023/01/28 09:07:44;;;;;;;14.33;11.10;;;;;;;0.86;94.20;97167.53;5113506;28;20309;-63
2023/01/28 09:10:11;;;;;;;13.77;10.27;;;;;;;0.77;93.34;97172.31;5119188;28;20227;-62
2023/01/28 09:12:38;;;;;;;13.80;10.57;;;;;;;0.86;93.14;97175.34;5118764;28;20200;-61
2023/01/28 09:15:06;;;;;;;15.30;11.13;;;;;;;1.00;92.55;97175.53;5120059;28;20218;-62
2023/01/28 09:17:33;;;;;;;13.23;10.80;;;;;;;0.95;91.88;97172.31;5113590;28;20246;-62
2023/01/28 09:19:59;;;;;;;11.83;10.53;;;;;;;1.00;91.69;97172.94;5112796;28;20197;-62
2023/01/28 09:22:26;;;;;;;13.40;10.87;;;;;;;0.90;90.96;97160.41;5113137;28;20212;-61
2023/01/28 09:24:52;;;;;;;12.73;10.10;;;;;;;0.94;91.35;97173.22;5112199;28;20205;-62
2023/01/28 09:27:19;;;;;;;13.47;10.40;;;;;;;0.95;90.62;97174.94;5111831;28;21291;-60
2023/01/28 09:29:47;;;;;;;14.20;10.57;;;;;;;1.05;90.04;97174.47;5111855;28;20252;-62
2023/01/28 09:32:13;;;;;;;11.43;9.73;;;;;;;1.07;89.22;97170.03;5112765;28;20208;-62
2023/01/28 09:34:40;;;;;;;13.27;10.00;;;;;;;1.18;88.54;97167.75;5112577;28;20212;-62
2023/01/28 09:37:06;;;;;;;11.03;9.67;;;;;;;1.02;87.52;97172.03;5112622;28;20511;-61
2023/01/28 09:39:33;;;;;;;12.50;9.90;;;;;;;1.16;87.79;97182.63;5112444;28;20538;-61
2023/01/28 09:42:21;;;;;;;10.50;9.07;;;;;;;1.19;87.24;97178.13;5112959;28;20208;-61
2023/01/28 09:44:58;;;;;;;11.20;9.27;;;;;;;1.12;87.14;97179.34;5109105;28;20197;-61
2023/01/28 09:47:30;;;;;;;11.30;9.07;;;;;;;1.13;85.51;97185.38;5111916;28;20199;-62
2023/01/28 09:50:00;;;;;;;10.97;8.93;;;;;;;1.16;85.25;97180.03;5113008;28;20220;-61
2023/01/28 09:52:26;;;;;;;12.47;9.83;;;;;;;1.10;85.84;97182.94;5112681;28;20195;-61
2023/01/28 09:54:56;;;;;;;11.63;9.37;;;;;;;1.13;85.17;97190.59;5112603;27;20222;-61
2023/01/28 09:57:24;;;;;;;10.27;8.30;;;;;;;1.09;85.67;97186.44;5112471;28;20195;-62
2023/01/28 09:59:52;;;;;;;11.87;10.10;;;;;;;1.09;85.60;97189.06;5111967;28;20233;-61
2023/01/28 10:02:27;;;;;;;10.40;9.30;;;;;;;1.14;85.94;97174.03;5111315;28;20231;-61
2023/01/28 10:04:59;;;;;;;11.97;9.07;;;;;;;1.13;86.13;97183.63;5112014;28;20219;-61
2023/01/28 10:07:35;;;;;;;12.23;9.73;;;;;;;1.19;86.15;97185.09;5112877;28;20196;-61
2023/01/28 10:10:06;;;;;;;13.53;9.67;;;;;;;1.16;85.47;97180.03;5112388;28;20208;-61
2023/01/28 10:12:56;;;;;;;11.53;9.53;;;;;;;1.09;85.44;97176.88;5115863;28;20275;-62
2023/01/28 10:15:38;;;;;;;14.33;9.43;;;;;;;1.14;85.80;97179.25;5121665;28;20181;-61
2023/01/28 10:18:10;;;;;;;10.33;9.23;;;;;;;1.20;85.68;97189.41;5123905;28;20210;-64
2023/01/28 10:20:40;;;;;;;12.07;9.70;;;;;;;1.21;85.74;97178.03;5116751;28;20268;-61
2023/01/28 10:23:12;;;;;;;14.10;10.93;;;;;;;1.13;86.28;97181.03;5117364;28;20653;-63
2023/01/28 10:25:43;;;;;;;11.80;9.50;;;;;;;1.21;85.96;97172.81;5115204;28;20200;-62
2023/01/28 10:28:18;;;;;;;14.83;10.73;;;;;;;1.18;86.79;97167.75;5111965;28;20508;-61
2023/01/28 10:30:47;;;;;;;11.53;9.43;;;;;;;1.18;85.67;97162.56;5111826;28;20799;-61
2023/01/28 10:33:19;;;;;;;13.33;9.63;;;;;;;1.21;85.34;97162.41;5109603;28;20249;-61
2023/01/28 10:35:46;;;;;;;12.73;9.50;;;;;;;1.08;85.61;97171.72;5111699;28;20202;-62
2023/01/28 10:38:14;;;;;;;11.97;9.50;;;;;;;1.21;85.82;97162.41;5111814;28;20472;-62
2023/01/28 10:40:41;;;;;;;11.87;9.43;;;;;;;1.26;85.32;97160.44;5111150;28;20206;-61
2023/01/28 10:43:08;;;;;;;12.97;9.73;;;;;;;1.33;84.90;97167.88;5111710;28;20222;-62
2023/01/28 10:45:38;;;;;;;11.67;9.50;;;;;;;1.35;83.81;97175.59;5111254;27;20515;-62
2023/01/28 10:48:11;;;;;;;13.53;10.20;;;;;;;1.42;84.65;97166.56;5111498;28;20213;-62
2023/01/28 10:50:38;;;;;;;11.67;9.70;;;;;;;1.52;83.68;97168.66;5113728;28;20668;-62
2023/01/28 10:53:06;;;;;;;13.03;9.80;;;;;;;1.56;82.54;97169.34;5112959;28;20205;-62
2023/01/28 10:55:37;;;;;;;10.23;8.73;;;;;;;1.66;83.09;97165.41;5112500;28;20228;-61
2023/01/28 10:58:04;;;;;;;13.57;9.37;;;;;;;1.63;81.41;97167.31;5115144;28;20523;-62
2023/01/28 11:00:33;;;;;;;11.73;9.30;;;;;;;1.67;81.39;97169.66;5113376;28;20215;-62
2023/01/28 11:03:00;;;;;;;9.97;8.87;;;;;;;1.74;79.80;97172.81;5113192;28;20659;-63
2023/01/28 11:05:30;;;;;;;12.03;9.00;;;;;;;1.69;79.62;97170.47;5113282;28;20218;-61
2023/01/28 11:08:04;;;;;;;12.23;9.10;;;;;;;1.73;79.86;97171.16;5113514;28;20231;-61
2023/01/28 11:10:33;;;;;;;12.70;8.60;;;;;;;1.73;79.75;97164.19;5113261;28;20220;-62
2023/01/28 11:13:01;;;;;;;10.63;9.13;;;;;;;1.72;79.11;97157.25;5113605;28;20204;-61
2023/01/28 11:15:28;;;;;;;12.30;8.97;;;;;;;1.73;80.21;97166.78;5110475;28;21387;-61
2023/01/28 11:17:58;;;;;;;11.33;9.30;;;;;;;1.74;79.93;97168.44;5113085;28;20621;-63
2023/01/28 11:20:28;;;;;;;11.17;9.57;;;;;;;1.72;79.49;97166.84;5114720;28;20523;-60
2023/01/28 11:22:55;;;;;;;10.53;9.17;;;;;;;1.62;79.99;97161.25;5114796;28;20282;-61
2023/01/28 11:25:29;;;;;;;10.47;9.20;;;;;;;1.63;79.66;97160.31;5115437;28;20205;-61
2023/01/28 11:27:56;;;;;;;13.83;10.50;;;;;;;1.66;80.69;97161.94;5113651;28;20279;-61
2023/01/28 11:30:24;;;;;;;11.67;9.57;;;;;;;1.65;81.36;97174.13;5115445;28;20220;-62
2023/01/28 11:32:59;;;;;;;13.13;10.33;;;;;;;1.67;81.28;97167.06;5119382;28;20212;-61
2023/01/28 11:35:29;;;;;;;14.83;10.77;;;;;;;1.73;81.16;97172.00;5120108;28;20223;-63
2023/01/28 11:37:56;;;;;;;12.00;10.40;;;;;;;1.79;80.87;97156.03;5122229;28;20364;-63
2023/01/28 11:40:23;;;;;;;12.67;10.00;;;;;;;1.73;81.16;97158.13;5134273;28;20185;-64
2023/01/28 11:42:50;;;;;;;12.83;10.20;;;;;;;1.68;81.38;97160.94;5131188;28;20195;-62
2023/01/28 11:45:18;;;;;;;13.33;10.10;;;;;;;1.65;81.46;97163.69;5135067;28;20229;-62
2023/01/28 11:47:53;;;;;;;11.67;9.53;;;;;;;1.65;80.35;97158.50;5123416;28;20211;-61
2023/01/28 11:50:28;;;;;;;10.20;9.10;;;;;;;1.70;80.19;97164.31;5116136;28;20222;-61
2023/01/28 11:53:02;;;;;;;9.87;8.87;;;;;;;1.69;79.45;97160.03;5114915;28;20628;-62
2023/01/28 11:55:40;;;;;;;11.30;9.53;;;;;;;1.67;79.77;97155.78;5114873;28;20485;-60
2023/01/28 11:58:18;;;;;;;10.73;9.07;;;;;;;1.67;80.29;97164.47;5114798;28;20203;-61
2023/01/28 12:00:52;;;;;;;11.93;8.97;;;;;;;1.70;78.74;97153.88;5114061;28;20525;-62
2023/01/28 12:03:34;;;;;;;10.60;8.73;;;;;;;1.69;78.23;97151.34;5114630;28;20211;-62